Time;durP1;ratioP1;P1;durP2;ratioP2;P2;SDS_P1;SDS_P2;PMS_P1;PMS_P2;Temp;Humidity;BMP_temperature;BMP_pressure;BME280_temperature;BME280_humidity;BME280_pressure;Samples;Min_cycle;Max_cycle;Signal;HPM_P1;HPM_P2
2021/12/26 00:01:08;;;;;;;167.48;108.15;;;282.50;2278.40;;;;;;5031837;28;20099;-59
2021/12/26 00:03:35;;;;;;;150.82;102.18;;;282.40;2278.40;;;;;;5032274;28;20036;-57
2021/12/26 00:06:06;;;;;;;165.35;116.97;;;282.40;2278.40;;;;;;5032318;28;20037;-58
2021/12/26 00:08:36;;;;;;;193.60;128.10;;;282.50;2278.40;;;;;;5032050;28;20030;-58
2021/12/26 00:11:05;;;;;;;194.13;126.07;;;282.50;2278.40;;;;;;5032092;28;20495;-57
2021/12/26 00:13:31;;;;;;;178.02;126.97;;;282.50;2278.40;;;;;;5032001;28;20558;-57
2021/12/26 00:15:59;;;;;;;184.60;119.43;;;282.50;2278.40;;;;;;5031820;28;20353;-58
2021/12/26 00:18:25;;;;;;;190.13;130.13;;;307.20;2304.00;;;;;;5032049;28;20029;-57
2021/12/26 00:20:51;;;;;;;148.20;106.85;;;282.50;2278.40;;;;;;5031967;28;20034;-57
2021/12/26 00:23:17;;;;;;;133.90;94.30;;;282.40;2278.40;;;;;;5031666;28;20163;-57
2021/12/26 00:25:44;;;;;;;159.02;108.57;;;282.50;2278.40;;;;;;5031882;28;20025;-57
2021/12/26 00:28:11;;;;;;;94.70;59.25;;;282.50;2278.40;;;;;;5031540;28;20075;-57
2021/12/26 00:30:37;;;;;;;121.88;78.80;;;282.40;2278.40;;;;;;5031673;28;20036;-57
2021/12/26 00:33:03;;;;;;;108.95;77.70;;;282.40;2278.40;;;;;;5031697;28;20029;-57
2021/12/26 00:35:29;;;;;;;107.80;73.30;;;282.50;2278.40;;;;;;5031601;28;20112;-57
2021/12/26 00:37:55;;;;;;;95.15;67.57;;;282.40;2278.40;;;;;;5031553;28;20077;-57
2021/12/26 00:40:22;;;;;;;80.75;55.08;;;282.40;2278.40;;;;;;5031569;28;20110;-57
2021/12/26 00:42:49;;;;;;;80.22;55.28;;;282.40;2278.40;;;;;;5031250;28;20033;-57
2021/12/26 00:45:16;;;;;;;73.38;51.85;;;282.40;2278.40;;;;;;5031365;28;20036;-59
2021/12/26 00:47:42;;;;;;;82.38;57.05;;;282.40;2278.40;;;;;;5031372;28;20053;-57
2021/12/26 00:50:10;;;;;;;99.03;68.65;;;282.40;2278.40;;;;;;5031154;28;20068;-57
2021/12/26 00:52:36;;;;;;;103.65;76.85;;;282.30;2278.40;;;;;;5031188;28;20369;-57
2021/12/26 00:55:05;;;;;;;122.30;84.72;;;282.30;2278.40;;;;;;5031424;28;20097;-57
2021/12/26 00:57:31;;;;;;;94.15;60.97;;;282.30;2278.40;;;;;;5031247;28;20034;-57
2021/12/26 00:59:57;;;;;;;44.05;32.75;;;282.20;2278.40;;;;;;5030929;28;20372;-57
2021/12/26 01:02:23;;;;;;;48.72;33.55;;;282.30;2278.40;;;;;;5031025;28;20057;-57
2021/12/26 01:04:48;;;;;;;43.53;27.50;;;282.20;2278.40;;;;;;5030930;28;20026;-58
2021/12/26 01:07:27;;;;;;;43.10;27.83;;;282.10;2278.40;;;;;;5031081;28;20072;-57
2021/12/26 01:09:53;;;;;;;37.33;27.23;;;282.10;2278.40;;;;;;5030068;28;20029;-56
2021/12/26 01:12:20;;;;;;;40.58;28.65;;;282.00;2278.40;;;;;;5029328;28;20448;-57
2021/12/26 01:14:51;;;;;;;35.15;27.15;;;282.00;2278.40;;;;;;5030748;28;20112;-57
2021/12/26 01:17:21;;;;;;;47.40;32.80;;;282.00;2278.40;;;;;;5030550;28;20468;-57
2021/12/26 01:19:50;;;;;;;63.88;46.38;;;282.00;2278.40;;;;;;5030676;28;20025;-57
2021/12/26 01:22:18;;;;;;;72.35;52.13;;;282.00;2278.40;;;;;;5030396;28;20034;-57
2021/12/26 01:24:45;;;;;;;65.70;47.38;;;282.00;2278.40;;;;;;5030583;28;20036;-57
2021/12/26 01:27:12;;;;;;;61.20;41.40;;;282.10;2278.40;;;;;;5030553;28;20479;-57
2021/12/26 01:29:38;;;;;;;64.53;46.85;;;282.00;2278.40;;;;;;5030512;28;20039;-57
2021/12/26 01:32:05;;;;;;;61.17;43.45;;;282.00;2278.40;;;;;;5030661;28;20037;-57
2021/12/26 01:34:30;;;;;;;65.93;46.17;;;282.00;2278.40;;;;;;5030827;28;20384;-57
2021/12/26 01:36:56;;;;;;;155.98;105.22;;;281.90;2278.40;;;;;;5030554;28;20026;-60
2021/12/26 01:39:23;;;;;;;116.55;71.93;;;281.90;2278.40;;;;;;5030339;28;20478;-58
2021/12/26 01:41:49;;;;;;;131.75;92.60;;;281.80;2278.40;;;;;;5030277;28;20037;-59
2021/12/26 01:44:16;;;;;;;123.57;83.85;;;281.80;2278.40;;;;;;5030442;28;20029;-57
2021/12/26 01:46:44;;;;;;;78.35;54.47;;;281.80;2278.40;;;;;;5030423;28;20030;-57
2021/12/26 01:49:11;;;;;;;89.28;60.70;;;281.60;2278.40;;;;;;5029905;28;20029;-57
2021/12/26 01:51:37;;;;;;;73.55;50.45;;;281.60;2278.40;;;;;;5030110;28;20116;-57
2021/12/26 01:54:08;;;;;;;95.75;63.55;;;281.60;2278.40;;;;;;5030235;28;20032;-57
2021/12/26 01:56:34;;;;;;;157.32;95.68;;;281.60;2278.40;;;;;;5030297;28;20021;-57
2021/12/26 01:59:00;;;;;;;88.05;64.40;;;256.90;2252.80;;;;;;5030394;28;20022;-58
2021/12/26 02:01:26;;;;;;;112.28;82.00;;;256.80;2252.80;;;;;;5029798;28;20128;-57
2021/12/26 02:03:52;;;;;;;111.35;80.30;;;256.80;2252.80;;;;;;5030190;28;20383;-57
2021/12/26 02:06:18;;;;;;;131.93;89.78;;;256.80;2252.80;;;;;;5030002;28;20116;-57
2021/12/26 02:08:44;;;;;;;106.00;75.70;;;256.80;2252.80;;;;;;5030172;28;20415;-57
2021/12/26 02:11:10;;;;;;;88.50;62.08;;;256.80;2252.80;;;;;;5029916;28;20018;-57
2021/12/26 02:13:38;;;;;;;108.07;72.55;;;256.90;2252.80;;;;;;5029924;28;20065;-57
2021/12/26 02:16:06;;;;;;;90.65;65.97;;;256.90;2252.80;;;;;;5030122;28;20033;-57
2021/12/26 02:18:32;;;;;;;99.60;65.32;;;281.60;2278.40;;;;;;5030124;28;20049;-57
2021/12/26 02:29:04;;;;;;;168.80;110.18;;;281.60;2278.40;;;;;;5048034;28;20036;-58
2021/12/26 02:31:29;;;;;;;105.97;70.85;;;256.90;2252.80;;;;;;5047436;28;20407;-58
2021/12/26 02:33:55;;;;;;;124.70;83.72;;;256.90;2252.80;;;;;;5047621;28;20159;-57
2021/12/26 02:36:21;;;;;;;76.55;54.50;;;256.90;2252.80;;;;;;5047608;28;20044;-57
2021/12/26 02:38:48;;;;;;;59.70;41.35;;;281.60;2278.40;;;;;;5047256;28;20025;-58
2021/12/26 02:41:13;;;;;;;47.55;36.88;;;281.60;2278.40;;;;;;5047561;28;20039;-57
2021/12/26 02:43:39;;;;;;;71.47;46.50;;;281.60;2278.40;;;;;;5047313;28;20402;-58
2021/12/26 02:46:07;;;;;;;102.57;60.03;;;281.60;2278.40;;;;;;5047700;28;20025;-57
2021/12/26 02:48:34;;;;;;;53.55;41.53;;;281.60;2278.40;;;;;;5047138;28;20061;-57
2021/12/26 02:51:01;;;;;;;86.28;55.53;;;256.80;2252.80;;;;;;5047298;28;20388;-58
2021/12/26 02:53:27;;;;;;;65.55;44.47;;;256.60;2252.80;;;;;;5047277;28;20494;-57
2021/12/26 02:55:56;;;;;;;56.78;40.25;;;256.70;2252.80;;;;;;5047290;28;20029;-57
2021/12/26 02:58:22;;;;;;;58.95;42.67;;;256.50;2252.80;;;;;;5047353;28;20090;-57
2021/12/26 03:00:55;;;;;;;64.00;44.42;;;256.10;2252.80;;;;;;5048444;28;20052;-57
2021/12/26 03:03:21;;;;;;;114.22;68.40;;;256.40;2252.80;;;;;;5041869;28;20054;-59
2021/12/26 03:05:58;;;;;;;122.13;73.15;;;256.40;2252.80;;;;;;5033176;28;20057;-58
2021/12/26 03:08:24;;;;;;;75.22;51.67;;;256.50;2252.80;;;;;;5033546;28;20033;-57
2021/12/26 03:10:52;;;;;;;42.63;32.15;;;256.60;2252.80;;;;;;5033411;28;20022;-57
2021/12/26 03:13:19;;;;;;;45.15;31.30;;;256.40;2252.80;;;;;;5033106;28;20047;-57
2021/12/26 03:15:46;;;;;;;37.67;29.27;;;256.20;2252.80;;;;;;5033289;28;20025;-57
2021/12/26 03:18:12;;;;;;;41.85;31.33;;;256.10;2252.80;;;;;;5033187;28;20383;-57
2021/12/26 03:20:42;;;;;;;36.30;28.27;;;256.10;2252.80;;;;;;5032944;28;20035;-57
2021/12/26 03:23:11;;;;;;;40.90;27.85;;;256.10;2252.80;;;;;;5032712;28;20037;-57
2021/12/26 03:25:39;;;;;;;37.35;27.88;;;231.20;2252.80;;;;;;5032994;28;20025;-57
2021/12/26 03:28:07;;;;;;;34.20;23.75;;;231.20;2252.80;;;;;;5032992;28;20021;-58
2021/12/26 03:30:35;;;;;;;38.83;27.05;;;231.20;2252.80;;;;;;5032897;28;20032;-57
2021/12/26 03:33:04;;;;;;;40.80;28.73;;;231.20;2252.80;;;;;;5032902;28;20033;-58
2021/12/26 03:35:30;;;;;;;47.95;30.60;;;231.10;2252.80;;;;;;5032770;28;20021;-57
2021/12/26 03:37:59;;;;;;;42.15;31.75;;;231.30;2252.80;;;;;;5032757;28;20021;-58
2021/12/26 03:40:25;;;;;;;40.25;29.73;;;231.30;2252.80;;;;;;5032948;28;20674;-57
2021/12/26 03:42:53;;;;;;;45.30;34.60;;;231.20;2252.80;;;;;;5032787;28;20372;-57
2021/12/26 03:45:19;;;;;;;40.78;30.25;;;256.10;2252.80;;;;;;5032429;28;20530;-57
2021/12/26 03:47:50;;;;;;;37.08;27.55;;;256.00;2252.80;;;;;;5032307;28;20113;-57
2021/12/26 03:50:18;;;;;;;38.42;28.92;;;256.00;2252.80;;;;;;5032370;28;20025;-57
2021/12/26 03:52:46;;;;;;;43.72;32.63;;;256.00;2252.80;;;;;;5032713;28;20036;-58
2021/12/26 03:55:12;;;;;;;53.80;36.90;;;231.20;2252.80;;;;;;5032517;28;20096;-57
2021/12/26 03:57:38;;;;;;;53.42;36.92;;;231.30;2252.80;;;;;;5032343;28;20056;-57
2021/12/26 04:00:06;;;;;;;48.92;33.67;;;231.30;2252.80;;;;;;5032236;28;20472;-58
2021/12/26 04:02:32;;;;;;;49.88;34.17;;;256.10;2252.80;;;;;;5032040;28;20512;-57
2021/12/26 04:04:57;;;;;;;88.10;54.80;;;256.20;2252.80;;;;;;5032184;28;20033;-59
2021/12/26 04:07:23;;;;;;;89.03;53.08;;;256.30;2252.80;;;;;;5032170;28;20033;-57
2021/12/26 04:09:49;;;;;;;41.55;30.38;;;256.20;2252.80;;;;;;5031967;28;20018;-57
2021/12/26 04:12:14;;;;;;;85.30;50.40;;;256.40;2252.80;;;;;;5031787;28;20387;-57
2021/12/26 04:14:40;;;;;;;40.40;29.85;;;256.40;2252.80;;;;;;5032144;28;20456;-58
2021/12/26 04:17:06;;;;;;;47.15;33.08;;;256.30;2252.80;;;;;;5031936;28;20021;-57
2021/12/26 04:19:32;;;;;;;189.40;105.95;;;256.30;2252.80;;;;;;5032361;28;20021;-58
2021/12/26 04:21:58;;;;;;;145.30;68.32;;;256.30;2252.80;;;;;;5031817;28;20533;-60
2021/12/26 04:24:23;;;;;;;111.38;71.80;;;256.20;2252.80;;;;;;5031909;28;20112;-57
2021/12/26 04:26:49;;;;;;;83.97;46.47;;;256.40;2252.80;;;;;;5031650;28;20515;-57
2021/12/26 04:29:15;;;;;;;47.28;35.33;;;256.40;2252.80;;;;;;5031674;28;20486;-58
2021/12/26 04:31:41;;;;;;;50.95;34.72;;;256.40;2252.80;;;;;;5031780;28;20543;-57
2021/12/26 04:34:07;;;;;;;46.17;32.80;;;256.50;2252.80;;;;;;5031579;28;20368;-58
2021/12/26 04:36:33;;;;;;;34.15;23.25;;;256.40;2252.80;;;;;;5031786;28;20022;-57
2021/12/26 04:38:58;;;;;;;36.88;23.92;;;256.30;2252.80;;;;;;5031699;28;20104;-59
2021/12/26 04:41:25;;;;;;;40.55;31.35;;;256.10;2252.80;;;;;;5031773;28;20021;-59
2021/12/26 04:43:51;;;;;;;83.78;49.80;;;231.30;2252.80;;;;;;5031684;28;20137;-57
2021/12/26 04:46:17;;;;;;;71.47;43.85;;;231.30;2252.80;;;;;;5031397;28;20089;-58
2021/12/26 04:48:44;;;;;;;30.40;22.33;;;256.10;2252.80;;;;;;5031460;28;20382;-57
2021/12/26 04:51:11;;;;;;;58.45;35.15;;;256.20;2252.80;;;;;;5031231;28;20468;-59
2021/12/26 04:53:39;;;;;;;142.70;78.50;;;256.20;2252.80;;;;;;5031228;28;20033;-57
2021/12/26 04:56:05;;;;;;;45.80;33.60;;;256.30;2252.80;;;;;;5031525;28;20071;-57
2021/12/26 04:58:31;;;;;;;172.15;91.13;;;256.40;2252.80;;;;;;5031186;28;20041;-59
2021/12/26 05:00:57;;;;;;;197.57;104.20;;;256.40;2252.80;;;;;;5030892;28;20049;-57
2021/12/26 05:03:23;;;;;;;180.13;98.90;;;256.30;2252.80;;;;;;5031134;28;20087;-57
2021/12/26 05:05:49;;;;;;;43.25;30.38;;;256.40;2252.80;;;;;;5030924;28;20017;-57
2021/12/26 05:08:15;;;;;;;82.40;45.45;;;256.30;2252.80;;;;;;5031226;28;20025;-57
2021/12/26 05:10:41;;;;;;;39.13;26.30;;;256.40;2252.80;;;;;;5030984;28;20022;-57
2021/12/26 05:13:08;;;;;;;75.95;44.40;;;256.40;2252.80;;;;;;5030725;28;20032;-57
2021/12/26 05:15:34;;;;;;;34.40;23.00;;;256.20;2252.80;;;;;;5030989;28;20049;-57
2021/12/26 05:18:00;;;;;;;67.82;42.72;;;256.00;2252.80;;;;;;5030754;28;20553;-60
2021/12/26 05:20:27;;;;;;;36.50;26.42;;;256.00;2252.80;;;;;;5031029;28;20079;-57
2021/12/26 05:22:55;;;;;;;33.00;23.83;;;256.00;2252.80;;;;;;5028833;28;20116;-57
2021/12/26 05:25:23;;;;;;;34.40;25.65;;;256.00;2252.80;;;;;;5030603;28;20026;-58
2021/12/26 05:27:50;;;;;;;71.50;41.50;;;256.10;2252.80;;;;;;5030373;28;20109;-57
2021/12/26 05:30:18;;;;;;;91.05;45.22;;;256.20;2252.80;;;;;;5030175;28;20029;-57
2021/12/26 05:32:45;;;;;;;353.20;184.20;;;256.20;2252.80;;;;;;5030440;28;20384;-58
2021/12/26 05:35:12;;;;;;;205.68;110.05;;;256.10;2252.80;;;;;;5030407;28;20027;-57
2021/12/26 05:37:39;;;;;;;89.63;55.03;;;256.20;2252.80;;;;;;5030416;28;20067;-58
2021/12/26 05:40:07;;;;;;;38.58;25.17;;;256.20;2252.80;;;;;;5030193;28;20484;-58
2021/12/26 05:42:34;;;;;;;30.52;21.45;;;256.20;2252.80;;;;;;5030264;28;20029;-57
2021/12/26 05:44:59;;;;;;;54.13;34.95;;;256.20;2252.80;;;;;;5030222;28;20397;-57
2021/12/26 05:47:25;;;;;;;43.13;31.52;;;256.10;2252.80;;;;;;5030236;28;20029;-59
2021/12/26 05:49:52;;;;;;;40.63;29.27;;;256.20;2252.80;;;;;;5030215;28;20025;-59
2021/12/26 05:52:21;;;;;;;72.45;46.30;;;256.00;2252.80;;;;;;5028961;28;20114;-58
2021/12/26 05:54:47;;;;;;;82.63;51.78;;;256.00;2252.80;;;;;;5029879;28;20022;-57
2021/12/26 05:57:13;;;;;;;91.80;55.65;;;256.20;2252.80;;;;;;5030086;28;20017;-60
2021/12/26 05:59:39;;;;;;;47.95;34.10;;;256.20;2252.80;;;;;;5030025;28;20108;-57
2021/12/26 06:02:05;;;;;;;71.72;54.45;;;256.20;2252.80;;;;;;5029764;28;20611;-57
2021/12/26 06:04:31;;;;;;;41.38;28.33;;;256.20;2252.80;;;;;;5030199;28;20060;-58
2021/12/26 06:06:56;;;;;;;44.88;31.13;;;231.30;2252.80;;;;;;5029936;28;20499;-59
2021/12/26 06:09:22;;;;;;;45.47;34.13;;;230.90;2252.80;;;;;;5030008;28;20032;-58
2021/12/26 06:11:48;;;;;;;60.30;38.10;;;230.80;2252.80;;;;;;5029972;28;20084;-58
2021/12/26 06:14:14;;;;;;;50.40;34.30;;;230.60;2252.80;;;;;;5030142;28;20091;-59
2021/12/26 06:16:40;;;;;;;35.20;26.02;;;230.50;2176.00;;;;;;5029891;28;20022;-58
2021/12/26 06:19:05;;;;;;;30.27;22.63;;;230.60;2252.80;;;;;;5029842;28;20464;-56
2021/12/26 06:21:31;;;;;;;52.95;35.05;;;230.60;2252.80;;;;;;5030236;28;20030;-55
2021/12/26 06:23:58;;;;;;;111.40;98.97;;;230.60;2252.80;;;;;;5029983;28;20052;-64
2021/12/26 06:26:25;;;;;;;32.20;21.33;;;230.80;2252.80;;;;;;5029843;28;20104;-55
2021/12/26 06:28:51;;;;;;;94.97;84.05;;;231.00;2252.80;;;;;;5030032;28;20382;-55
2021/12/26 06:31:18;;;;;;;76.43;53.00;;;231.10;2252.80;;;;;;5029657;28;20030;-56
2021/12/26 06:33:44;;;;;;;67.53;49.17;;;231.20;2252.80;;;;;;5029870;28;20030;-55
2021/12/26 06:36:10;;;;;;;75.65;55.78;;;231.30;2252.80;;;;;;5033779;28;20083;-56
2021/12/26 06:38:37;;;;;;;63.20;47.42;;;231.30;2252.80;;;;;;5033687;28;20021;-55
2021/12/26 06:41:05;;;;;;;71.88;50.55;;;231.20;2252.80;;;;;;5033867;28;20036;-56
2021/12/26 06:43:31;;;;;;;76.65;54.30;;;231.30;2252.80;;;;;;5033821;28;20121;-55
2021/12/26 06:45:57;;;;;;;69.28;50.05;;;231.30;2252.80;;;;;;5033742;28;20022;-56
2021/12/26 06:48:23;;;;;;;58.28;39.83;;;231.30;2252.80;;;;;;5033683;28;20041;-56
2021/12/26 06:50:50;;;;;;;39.60;27.75;;;231.20;2252.80;;;;;;5033772;28;20112;-56
2021/12/26 06:53:17;;;;;;;29.52;22.15;;;231.20;2252.80;;;;;;5033474;28;20052;-56
2021/12/26 06:55:43;;;;;;;32.60;22.60;;;231.20;2252.80;;;;;;5033569;28;20168;-55
2021/12/26 06:58:09;;;;;;;30.27;22.77;;;256.00;2252.80;;;;;;5033416;28;20399;-56
2021/12/26 07:00:35;;;;;;;70.35;53.38;;;256.00;2252.80;;;;;;5033195;28;20029;-56
2021/12/26 07:03:01;;;;;;;33.47;24.80;;;256.30;2252.80;;;;;;5033568;28;20041;-56
2021/12/26 07:05:27;;;;;;;27.95;21.13;;;256.30;2252.80;;;;;;5033521;28;20028;-55
2021/12/26 07:07:53;;;;;;;26.83;19.77;;;256.30;2252.80;;;;;;5033410;28;20472;-56
2021/12/26 07:10:20;;;;;;;110.65;82.90;;;256.40;2252.80;;;;;;5033096;28;20026;-56
2021/12/26 07:12:46;;;;;;;50.30;35.67;;;256.40;2252.80;;;;;;5033000;28;20028;-56
2021/12/26 07:15:12;;;;;;;77.45;59.60;;;256.50;2252.80;;;;;;5033248;28;20088;-55
2021/12/26 07:17:40;;;;;;;163.43;111.35;;;256.60;2252.80;;;;;;5033059;28;20075;-56
2021/12/26 07:20:08;;;;;;;41.17;26.98;;;256.60;2252.80;;;;;;5033244;28;20036;-56
2021/12/26 07:22:34;;;;;;;34.30;27.02;;;256.60;2252.80;;;;;;5033253;28;20044;-63
2021/12/26 07:25:00;;;;;;;44.45;33.67;;;256.50;2252.80;;;;;;5032756;28;20025;-55
2021/12/26 07:27:26;;;;;;;57.35;44.35;;;256.40;2252.80;;;;;;5032896;28;20493;-55
2021/12/26 07:29:52;;;;;;;62.50;46.60;;;256.40;2252.80;;;;;;5033064;28;20025;-59
2021/12/26 07:32:18;;;;;;;60.63;46.75;;;256.40;2252.80;;;;;;5032570;28;20029;-63
2021/12/26 07:34:44;;;;;;;51.45;37.20;;;256.20;2252.80;;;;;;5032908;28;20037;-63
2021/12/26 07:37:10;;;;;;;41.63;30.02;;;256.20;2252.80;;;;;;5032766;28;20037;-55
2021/12/26 07:39:36;;;;;;;57.47;37.47;;;256.10;2252.80;;;;;;5032583;28;20025;-55
2021/12/26 07:42:04;;;;;;;37.13;27.13;;;256.00;2252.80;;;;;;5032774;28;20388;-55
2021/12/26 07:44:29;;;;;;;31.88;23.20;;;256.00;2252.80;;;;;;5032610;28;20029;-56
2021/12/26 07:46:55;;;;;;;19.88;14.80;;;256.20;2252.80;;;;;;5031880;28;20028;-55
2021/12/26 07:49:23;;;;;;;26.20;18.52;;;256.20;2252.80;;;;;;5032692;28;20657;-55
2021/12/26 07:51:50;;;;;;;19.63;15.02;;;256.40;2252.80;;;;;;5032423;28;20108;-55
2021/12/26 07:54:16;;;;;;;29.50;15.90;;;256.40;2252.80;;;;;;5032293;28;20040;-57
2021/12/26 07:56:43;;;;;;;22.00;15.20;;;256.50;2252.80;;;;;;5032634;28;20483;-63
2021/12/26 07:59:09;;;;;;;17.85;12.50;;;256.40;2252.80;;;;;;5032308;28;20036;-55
2021/12/26 08:01:36;;;;;;;19.77;11.10;;;256.60;2252.80;;;;;;5032229;28;20853;-55
2021/12/26 08:04:02;;;;;;;20.73;11.65;;;256.60;2252.80;;;;;;5032271;28;20025;-57
2021/12/26 08:06:30;;;;;;;16.38;11.25;;;256.80;2252.80;;;;;;5032207;28;20029;-65
2021/12/26 08:08:56;;;;;;;17.55;12.35;;;256.80;2252.80;;;;;;5031985;28;20117;-55
2021/12/26 08:11:22;;;;;;;15.15;10.40;;;256.80;2252.80;;;;;;5032507;28;20060;-64
2021/12/26 08:13:48;;;;;;;20.55;14.15;;;256.70;2252.80;;;;;;5032094;28;20041;-54
2021/12/26 08:16:14;;;;;;;97.40;73.65;;;256.70;2252.80;;;;;;5032208;28;20034;-53
2021/12/26 08:18:40;;;;;;;29.27;20.73;;;256.80;2252.80;;;;;;5031839;28;20068;-61
2021/12/26 08:21:06;;;;;;;24.27;19.35;;;281.60;2278.40;;;;;;5030676;28;20120;-55
2021/12/26 08:23:32;;;;;;;21.35;13.85;;;281.70;2278.40;;;;;;5032005;28;20140;-56
2021/12/26 08:25:58;;;;;;;18.42;12.85;;;281.70;2278.40;;;;;;5031920;28;20526;-59
2021/12/26 08:28:25;;;;;;;24.23;14.48;;;281.60;2278.40;;;;;;5031981;28;20100;-56
2021/12/26 08:30:51;;;;;;;23.00;16.83;;;281.70;2278.40;;;;;;5031539;28;20026;-56
2021/12/26 08:33:17;;;;;;;19.42;14.00;;;256.90;2252.80;;;;;;5031597;28;20030;-56
2021/12/26 08:35:46;;;;;;;25.23;17.23;;;256.90;2252.80;;;;;;5031853;28;20037;-65
2021/12/26 08:38:13;;;;;;;22.40;14.60;;;256.90;2252.80;;;;;;5031762;28;20025;-65
2021/12/26 08:40:39;;;;;;;25.13;17.85;;;256.90;2252.80;;;;;;5031452;28;20041;-60
2021/12/26 08:43:05;;;;;;;25.85;18.27;;;256.90;2252.80;;;;;;5031545;28;20438;-56
2021/12/26 08:45:31;;;;;;;23.58;16.00;;;281.70;2278.40;;;;;;5031632;28;20472;-55
2021/12/26 08:47:57;;;;;;;27.48;17.52;;;281.70;2278.40;;;;;;5031448;28;20036;-63
2021/12/26 08:50:25;;;;;;;23.27;17.73;;;281.60;2278.40;;;;;;5031261;28;20018;-56
2021/12/26 08:52:51;;;;;;;22.20;16.27;;;281.60;2278.40;;;;;;5043179;28;20033;-56
2021/12/26 08:55:17;;;;;;;19.40;14.88;;;256.90;2252.80;;;;;;5051115;28;20079;-57
2021/12/26 08:57:43;;;;;;;31.83;23.30;;;281.60;2278.40;;;;;;5050968;28;20029;-57
2021/12/26 09:00:11;;;;;;;26.15;16.55;;;281.60;2278.40;;;;;;5040727;28;20025;-56
2021/12/26 09:02:37;;;;;;;23.58;16.42;;;281.90;2278.40;;;;;;5038248;28;20042;-58
2021/12/26 09:05:04;;;;;;;26.05;17.13;;;282.00;2278.40;;;;;;5040466;28;20032;-57
2021/12/26 09:07:30;;;;;;;22.00;15.40;;;282.10;2278.40;;;;;;5039979;28;20013;-56
2021/12/26 09:09:57;;;;;;;20.08;15.20;;;282.20;2278.40;;;;;;5038628;28;20041;-56
2021/12/26 09:12:23;;;;;;;23.83;17.05;;;282.40;2278.40;;;;;;5040455;28;20020;-57
2021/12/26 09:14:49;;;;;;;25.73;17.92;;;282.40;2278.40;;;;;;5039630;28;20048;-62
2021/12/26 09:17:15;;;;;;;23.83;18.45;;;282.50;2278.40;;;;;;5036742;28;20025;-59
2021/12/26 09:19:41;;;;;;;27.00;18.30;;;282.50;2278.40;;;;;;5039582;28;20032;-63
2021/12/26 09:22:10;;;;;;;48.83;34.50;;;282.50;2278.40;;;;;;5039971;28;20052;-57
2021/12/26 09:24:38;;;;;;;48.40;34.55;;;307.20;2304.00;;;;;;5036455;28;20022;-57
2021/12/26 09:27:04;;;;;;;51.15;37.28;;;307.40;2304.00;;;;;;5038501;28;20024;-56
2021/12/26 09:29:32;;;;;;;40.75;30.65;;;307.60;2304.00;;;;;;5039172;28;20017;-57
2021/12/26 09:31:57;;;;;;;32.30;21.80;;;307.70;2304.00;;;;;;5039215;28;20391;-62
2021/12/26 09:34:24;;;;;;;36.17;21.75;;;307.70;2304.00;;;;;;5033745;28;20034;-57
2021/12/26 09:36:51;;;;;;;33.92;23.13;;;307.80;2304.00;;;;;;5037481;28;20468;-62
2021/12/26 09:39:17;;;;;;;49.67;37.38;;;307.80;2304.00;;;;;;5038339;28;20507;-57
2021/12/26 09:41:44;;;;;;;40.80;29.38;;;307.90;2304.00;;;;;;5038318;28;20022;-57
2021/12/26 09:44:10;;;;;;;36.97;26.35;;;307.70;2304.00;;;;;;5038210;28;20028;-57
2021/12/26 09:46:37;;;;;;;96.93;63.67;;;307.60;2304.00;;;;;;5038885;28;20017;-57
2021/12/26 09:49:04;;;;;;;146.63;106.20;;;307.50;2304.00;;;;;;5039963;28;20075;-58
2021/12/26 09:51:29;;;;;;;84.57;56.90;;;307.60;2304.00;;;;;;5037205;28;20021;-57
2021/12/26 09:53:55;;;;;;;114.53;78.93;;;307.60;2304.00;;;;;;5045266;28;20520;-57
2021/12/26 09:56:21;;;;;;;71.82;51.38;;;307.70;2304.00;;;;;;5050188;28;20075;-56
2021/12/26 09:58:57;;;;;;;92.38;70.05;;;307.70;2304.00;;;;;;5050021;28;20070;-57
2021/12/26 10:01:33;;;;;;;63.75;45.97;;;307.80;2304.00;;;;;;5047916;28;20074;-57
2021/12/26 10:04:21;;;;;;;46.95;34.08;;;308.00;2304.00;;;;;;5034999;28;20376;-57
2021/12/26 10:06:50;;;;;;;71.22;49.70;;;308.00;2304.00;;;;;;5036118;28;20041;-57
2021/12/26 10:09:18;;;;;;;78.57;54.45;;;308.10;2304.00;;;;;;5036820;28;20368;-62
2021/12/26 10:11:53;;;;;;;66.55;51.63;;;332.90;2329.60;;;;;;5036281;28;20053;-57
2021/12/26 10:14:21;;;;;;;70.95;50.28;;;332.90;2329.60;;;;;;5049376;28;20033;-62
2021/12/26 10:16:53;;;;;;;62.50;42.30;;;308.00;2304.00;;;;;;5037505;28;20033;-57
2021/12/26 10:19:20;;;;;;;63.17;46.15;;;332.80;2329.60;;;;;;5030286;28;20022;-58
2021/12/26 10:21:53;;;;;;;59.00;42.90;;;333.10;2329.60;;;;;;5026477;28;20108;-62
2021/12/26 10:24:22;;;;;;;56.00;41.58;;;333.30;2329.60;;;;;;5026208;28;20025;-57
2021/12/26 10:27:13;;;;;;;56.83;37.88;;;333.50;2329.60;;;;;;5026106;28;20021;-56
2021/12/26 10:29:44;;;;;;;57.25;41.95;;;333.50;2329.60;;;;;;5037349;28;20017;-60
2021/12/26 10:32:18;;;;;;;67.50;52.97;;;333.70;2329.60;;;;;;5035895;28;20040;-59
2021/12/26 10:35:01;;;;;;;65.70;46.47;;;358.50;2329.60;;;;;;5036103;28;20025;-58
2021/12/26 10:37:32;;;;;;;77.30;55.38;;;333.70;2329.60;;;;;;5036561;28;20033;-57
2021/12/26 10:40:06;;;;;;;48.00;36.95;;;333.70;2329.60;;;;;;5035178;28;20029;-58
2021/12/26 10:42:33;;;;;;;;;;;333.70;2329.60;;;;;;5033503;28;20039;-55
2021/12/26 10:45:07;;;;;;;66.95;49.00;;;333.30;2329.60;;;;;;5046380;28;20318;-56
2021/12/26 10:47:34;;;;;;;60.05;42.33;;;332.90;2329.60;;;;;;5048087;28;20079;-56
2021/12/26 10:50:16;;;;;;;63.65;46.28;;;333.20;2329.60;;;;;;5047877;28;20035;-57
2021/12/26 10:52:50;;;;;;;111.32;77.28;;;333.10;2329.60;;;;;;5047830;28;20032;-58
2021/12/26 10:55:27;;;;;;;112.72;74.35;;;332.80;2329.60;;;;;;5047866;28;20029;-58
2021/12/26 10:57:53;;;;;;;126.78;81.53;;;332.80;2329.60;;;;;;5047780;28;20432;-57
2021/12/26 11:00:20;;;;;;;139.05;78.10;;;333.10;2329.60;;;;;;5031052;28;20112;-56
2021/12/26 11:02:58;;;;;;;79.53;54.00;;;333.10;2329.60;;;;;;5028025;28;20046;-56
2021/12/26 11:05:28;;;;;;;70.03;52.25;;;332.80;2329.60;;;;;;5042833;28;20033;-57
2021/12/26 11:08:05;;;;;;;80.18;59.13;;;308.00;2304.00;;;;;;5046095;28;20037;-58
2021/12/26 11:10:35;;;;;;;85.78;59.88;;;308.10;2304.00;;;;;;5029616;28;20022;-57
2021/12/26 11:13:03;;;;;;;83.47;59.03;;;308.10;2304.00;;;;;;5029210;28;20477;-58
2021/12/26 11:15:40;;;;;;;80.72;59.35;;;333.00;2329.60;;;;;;5029149;28;20056;-57
2021/12/26 11:18:09;;;;;;;65.32;50.10;;;333.20;2329.60;;;;;;5034493;28;20038;-57
2021/12/26 11:20:36;;;;;;;70.50;51.35;;;333.00;2329.60;;;;;;5029011;28;20037;-57
2021/12/26 11:23:09;;;;;;;82.78;58.70;;;333.10;2329.60;;;;;;5038153;28;20042;-58
2021/12/26 11:25:50;;;;;;;93.03;65.15;;;332.90;2329.60;;;;;;5033088;28;20068;-62
2021/12/26 11:28:22;;;;;;;81.90;55.75;;;308.10;2304.00;;;;;;5033010;28;20033;-60
2021/12/26 11:30:48;;;;;;;67.90;46.55;;;308.00;2304.00;;;;;;5032902;28;20026;-57
2021/12/26 11:33:14;;;;;;;64.03;46.55;;;307.60;2304.00;;;;;;5033048;28;20037;-61
2021/12/26 11:35:40;;;;;;;75.75;42.15;;;307.40;2304.00;;;;;;5032853;28;20021;-56
2021/12/26 11:38:15;;;;;;;94.43;60.83;;;282.40;2278.40;;;;;;5032582;28;20033;-56
2021/12/26 11:40:41;;;;;;;78.28;47.28;;;282.40;2278.40;;;;;;5032770;28;20171;-56
2021/12/26 11:43:39;;;;;;;104.60;60.30;;;282.20;2278.40;;;;;;5032685;28;20040;-56
2021/12/26 11:46:20;;;;;;;109.18;58.70;;;281.70;2278.40;;;;;;5032799;28;20025;-56
2021/12/26 11:49:06;;;;;;;180.85;60.95;;;256.40;2252.80;;;;;;5032692;28;20091;-57
2021/12/26 11:52:05;;;;;;;110.22;51.47;;;256.20;2252.80;;;;;;5032495;28;20412;-56
2021/12/26 11:54:45;;;;;;;189.40;88.35;;;256.10;2252.80;;;;;;5032541;28;20021;-56
2021/12/26 11:57:39;;;;;;;112.65;72.35;;;256.20;2252.80;;;;;;5032505;28;20108;-57
2021/12/26 12:00:27;;;;;;;111.88;76.97;;;256.10;2252.80;;;;;;5032612;28;20033;-57
2021/12/26 12:02:56;;;;;;;120.40;71.90;;;256.00;2252.80;;;;;;5032350;28;20033;-56
2021/12/26 12:05:26;;;;;;;129.23;65.43;;;231.20;2252.80;;;;;;5032297;28;20049;-56
2021/12/26 12:07:54;;;;;;;143.82;65.65;;;231.10;2252.80;;;;;;5032336;28;20025;-60